Airport View

Enter AWOS ICAO identifier for current METAR.

ex. KFNL

KOUN 221747Z 35016KT 10SM BKN030 27/19 A3012

22 Jul 2019 18:35

Frequency: 119.55

Phone: 405-325-7302

Other Area AWOS: KOKC - KTIK - KPWA - KRCE

TAF KOUN 221720Z 2218/2318 03016G24KT P6SM BKN028 FM222100 04016G23KT P6SM SKC FM230300 02009KT P6SM SCT250